Map

Track Data

SID SEASON NUMBER BASIN SUBBASIN NAME ISO_TIME NATURE LAT LON WMO_WIND WMO_PRES WMO_AGENCY TRACK_TYPE DIST2LAND LANDFALL IFLAG USA_AGENCY USA_ATCF_ID USA_LAT USA_LON USA_RECORD USA_STATUS USA_WIND USA_PRES USA_SSHS USA_R34_NE USA_R34_SE USA_R34_SW USA_R34_NW USA_R50_NE USA_R50_SE USA_R50_SW USA_R50_NW USA_R64_NE USA_R64_SE USA_R64_SW USA_R64_NW USA_POCI USA_ROCI USA_RMW USA_EYE TOKYO_LAT TOKYO_LON TOKYO_GRADE TOKYO_WIND TOKYO_PRES TOKYO_R50_DIR TOKYO_R50_LONG TOKYO_R50_SHORT TOKYO_R30_DIR TOKYO_R30_LONG TOKYO_R30_SHORT TOKYO_LAND CMA_LAT CMA_LON CMA_CAT CMA_WIND CMA_PRES HKO_LAT HKO_LON HKO_CAT HKO_WIND HKO_PRES NEWDELHI_LAT NEWDELHI_LON NEWDELHI_GRADE NEWDELHI_WIND NEWDELHI_PRES NEWDELHI_CI NEWDELHI_DP NEWDELHI_POCI REUNION_LAT REUNION_LON REUNION_TYPE REUNION_WIND REUNION_PRES REUNION_TNUM REUNION_CI REUNION_RMW REUNION_R34_NE REUNION_R34_SE REUNION_R34_SW REUNION_R34_NW REUNION_R50_NE REUNION_R50_SE REUNION_R50_SW REUNION_R50_NW REUNION_R64_NE REUNION_R64_SE REUNION_R64_SW REUNION_R64_NW BOM_LAT BOM_LON BOM_TYPE BOM_WIND BOM_PRES BOM_TNUM BOM_CI BOM_RMW BOM_R34_NE BOM_R34_SE BOM_R34_SW BOM_R34_NW BOM_R50_NE BOM_R50_SE BOM_R50_SW BOM_R50_NW BOM_R64_NE BOM_R64_SE BOM_R64_SW BOM_R64_NW BOM_ROCI BOM_POCI BOM_EYE BOM_POS_METHOD BOM_PRES_METHOD NADI_LAT NADI_LON NADI_CAT NADI_WIND NADI_PRES WELLINGTON_LAT WELLINGTON_LON WELLINGTON_WIND WELLINGTON_PRES DS824_LAT DS824_LON DS824_STAGE DS824_WIND DS824_PRES TD9636_LAT TD9636_LON TD9636_STAGE TD9636_WIND TD9636_PRES TD9635_LAT TD9635_LON TD9635_WIND TD9635_PRES TD9635_ROCI NEUMANN_LAT NEUMANN_LON NEUMANN_CLASS NEUMANN_WIND NEUMANN_PRES MLC_LAT MLC_LON MLC_CLASS MLC_WIND MLC_PRES USA_GUST BOM_GUST BOM_GUST_PER REUNION_GUST REUNION_GUST_PER USA_SEAHGT USA_SEARAD_NE USA_SEARAD_SE USA_SEARAD_SW USA_SEARAD_NW STORM_SPEED STORM_DIR
1969245N17253 1969 66 EP MM FLORENCE 1969-09-02 00:00:00 TS 17.1000 -107.300 25 hurdat_epa main 353 353 O________OO___ hurdat_epa EP061969 17.1000 -107.300 TD 25 -1 17.1000 -107.300 TC 25 17.1000 -107.300 1 16 280
1969245N17253 1969 66 EP MM FLORENCE 1969-09-02 03:00:00 TS 17.2377 -108.125 main 406 406 P________PP___ EP061969 17.2408 -108.135 TD 25 -1 17.2408 -108.135 TC 25 17.2252 -108.086 1 15 281
1969245N17253 1969 66 EP MM FLORENCE 1969-09-02 06:00:00 TS 17.3958 -108.885 25 hurdat_epa main 458 458 O________OP___ hurdat_epa EP061969 17.4000 -108.900 TD 25 -1 17.4000 -108.900 TC 25 17.3788 -108.827 1 14 285
1969245N17253 1969 66 EP MM FLORENCE 1969-09-02 09:00:00 TS 17.6024 -109.522 main 499 499 P________PP___ EP061969 17.6048 -109.533 TD 25 -1 17.6048 -109.533 TC 25 17.5928 -109.480 1 12 295
1969245N17253 1969 66 EP MM FLORENCE 1969-09-02 12:00:00 TS 17.9000 -110.000 25 hurdat_epa main 528 515 O________OO___ hurdat_epa EP061969 17.9000 -110.000 TD 25 -1 17.9000 -110.000 TC 25 17.9000 -110.000 1 11 313
1969245N17253 1969 66 EP MM FLORENCE 1969-09-02 15:00:00 TS 18.3250 -110.331 main 515 461 P________PP___ EP061969 18.3273 -110.325 TD 25 -1 18.3273 -110.325 TC 25 18.3157 -110.354 1 10 332
1969245N17253 1969 66 EP MM FLORENCE 1969-09-02 18:00:00 TS 18.7972 -110.511 25 1006 hurdat_epa main 461 418 O________OP___ hurdat_epa EP061969 18.8000 -110.500 TD 25 1006 -1 18.8000 -110.500 TC 25 1006 18.7858 -110.555 1 10 343
1969245N17253 1969 66 EP MM FLORENCE 1969-09-02 21:00:00 TS 19.2495 -110.620 main 418 374 P________PP___ EP061969 19.2524 -110.618 TD 27 -1 19.2524 -110.618 TC 27 19.2380 -110.629 1 8 354
1969245N17253 1969 66 EP MM FLORENCE 1969-09-03 00:00:00 TS 19.6000 -110.600 30 hurdat_epa main 374 350 O________OO___ hurdat_epa EP061969 19.6000 -110.600 TD 30 -1 19.6000 -110.600 TC 30 19.6000 -110.600 1 5 18
1969245N17253 1969 66 EP MM FLORENCE 1969-09-03 03:00:00 TS 19.7580 -110.445 main 349 347 P________PP___ EP061969 19.7526 -110.430 TD 30 -1 19.7526 -110.430 TC 30 19.7798 -110.503 1 4 59
1969245N17253 1969 66 EP MM FLORENCE 1969-09-03 06:00:00 TS 19.8125 -110.224 30 hurdat_epa main 347 335 O________OP___ hurdat_epa EP061969 19.8000 -110.200 TD 30 -1 19.8000 -110.200 TC 30 19.8627 -110.318 1 4 74
1969245N17253 1969 66 EP MM FLORENCE 1969-09-03 09:00:00 TS 19.8638 -110.048 main 335 335 P________PP___ EP061969 19.8575 -110.035 TD 30 -1 19.8575 -110.035 TC 30 19.8893 -110.099 1 3 74
1969245N17253 1969 66 EP MM FLORENCE 1969-09-03 12:00:00 TS 19.9000 -109.900 30 hurdat_epa main 335 335 O________OO___ hurdat_epa EP061969 19.9000 -109.900 TD 30 -1 19.9000 -109.900 TC 30 19.9000 -109.900 1 3 71
1969245N17253 1969 66 EP MM FLORENCE 1969-09-03 15:00:00 TS 19.9482 -109.784 main 335 324 P________PP___ EP061969 19.9500 -109.785 TD 35 0 19.9500 -109.785 TC 35 19.9409 -109.780 1 2 63
1969245N17253 1969 66 EP MM FLORENCE 1969-09-03 18:00:00 TS 19.9955 -109.698 40 hurdat_epa main 324 324 O________OP___ hurdat_epa EP061969 20.0000 -109.700 TS 40 0 20.0000 -109.700 TC 40 19.9774 -109.690 1 2 60
1969245N17253 1969 66 EP MM FLORENCE 1969-09-03 21:00:00 TS 20.0330 -109.634 main 324 313 P________PP___ EP061969 20.0350 -109.635 TS 40 0 20.0350 -109.635 TC 40 20.0253 -109.630 1 1 40
1969245N17253 1969 66 EP MM FLORENCE 1969-09-04 00:00:00 TS 20.1000 -109.600 40 hurdat_epa main 313 302 O________OO___ hurdat_epa EP061969 20.1000 -109.600 TS 40 0 20.1000 -109.600 TC 40 20.1000 -109.600 2 2 9
1969245N17253 1969 66 EP MM FLORENCE 1969-09-04 03:00:00 TS 20.2396 -109.587 main 302 280 P________PP___ EP061969 20.2350 -109.585 TS 40 0 20.2350 -109.585 TC 40 20.2578 -109.596 2 3 0
1969245N17253 1969 66 EP MM FLORENCE 1969-09-04 06:00:00 TS 20.4075 -109.604 40 hurdat_epa main 280 257 O________OP___ hurdat_epa EP061969 20.4000 -109.600 TS 40 0 20.4000 -109.600 TC 40 20.4375 -109.620 2 4 352
1969245N17253 1969 66 EP MM FLORENCE 1969-09-04 09:00:00 TS 20.5897 -109.652 main 257 246 P________PP___ EP061969 20.5875 -109.650 TS 42 0 20.5875 -109.650 TC 42 20.5984 -109.659 2 3 343
1969245N17253 1969 66 EP MM FLORENCE 1969-09-04 12:00:00 TS 20.7000 -109.700 45 hurdat_epa main 246 246 O________OO___ hurdat_epa EP061969 20.7000 -109.700 TS 45 0 20.7000 -109.700 TC 45 20.7000 -109.700 2 1 307
1969245N17253 1969 66 EP MM FLORENCE 1969-09-04 15:00:00 TS 20.6306 -109.704 main 257 257 P________PP___ EP061969 20.6300 -109.700 TS 47 0 20.6300 -109.700 TC 47 20.6328 -109.721 2 2 183
1969245N17253 1969 66 EP MM FLORENCE 1969-09-04 18:00:00 TS 20.5025 -109.709 50 hurdat_epa main 268 268 O________OP___ hurdat_epa EP061969 20.5000 -109.700 TS 50 0 20.5000 -109.700 TC 50 20.5125 -109.743 2 2 190
1969245N17253 1969 66 EP MM FLORENCE 1969-09-04 21:00:00 TS 20.4002 -109.748 main 279 279 P________PP___ EP061969 20.3975 -109.743 TS 55 0 20.3975 -109.743 TC 55 20.4109 -109.768 2 1 222
1969245N17253 1969 66 EP MM FLORENCE 1969-09-05 00:00:00 TS 20.4000 -109.800 60 hurdat_epa main 279 257 O________OO___ hurdat_epa EP061969 20.4000 -109.800 TS 60 0 20.4000 -109.800 TC 60 20.4000 -109.800 2 2 335
1969245N17253 1969 66 EP MM FLORENCE 1969-09-05 03:00:00 TS 20.5969 -109.845 main 257 223 P________PP___ EP061969 20.5975 -109.850 TS 60 0 20.5975 -109.850 TC 60 20.5946 -109.827 2 5 350
1969245N17253 1969 66 EP MM FLORENCE 1969-09-05 06:00:00 TS 20.8965 -109.893 60 hurdat_epa main 223 190 O________OP___ hurdat_epa EP061969 20.9000 -109.900 TS 60 0 20.9000 -109.900 TC 60 20.8824 -109.863 2 6 353
1969245N17253 1969 66 EP MM FLORENCE 1969-09-05 09:00:00 TS 21.2128 -109.931 main 190 156 P________PP___ EP061969 21.2150 -109.935 TS 52 0 21.2150 -109.935 TC 52 21.2040 -109.917 2 6 351
1969245N17253 1969 66 EP MM FLORENCE 1969-09-05 12:00:00 TS 21.5000 -110.000 45 hurdat_epa main 156 134 O________OO___ hurdat_epa EP061969 21.5000 -110.000 TS 45 0 21.5000 -110.000 TC 45 21.5000 -110.000 2 5 338
1969245N17253 1969 66 EP MM FLORENCE 1969-09-05 15:00:00 TS 21.6728 -110.133 main 134 124 P________PP___ EP061969 21.6725 -110.135 TS 45 0 21.6725 -110.135 TC 45 21.6738 -110.125 2 4 318
1969245N17253 1969 66 EP MM FLORENCE 1969-09-05 18:00:00 TS 21.8030 -110.296 45 997 hurdat_epa main 126 119 O________OP___ hurdat_epa EP061969 21.8000 -110.300 TS 45 997 0 21.8000 -110.300 TC 45 997 21.8151 -110.278 2 4 312
1969245N17253 1969 66 EP MM FLORENCE 1969-09-05 21:00:00 TS 21.9438 -110.454 main 123 108 P________PP___ EP061969 21.9425 -110.458 TS 42 0 21.9425 -110.458 TC 42 21.9488 -110.441 2 4 317
1969245N17253 1969 66 EP MM FLORENCE 1969-09-06 00:00:00 TS 22.1000 -110.600 40 hurdat_epa main 108 98 O________OO___ hurdat_epa EP061969 22.1000 -110.600 TS 40 0 22.1000 -110.600 TC 40 22.1000 -110.600 2 4 327
1969245N17253 1969 66 EP MM FLORENCE 1969-09-06 03:00:00 TS 22.2869 -110.697 main 98 90 P________PP___ EP061969 22.2850 -110.700 TS 40 0 22.2850 -110.700 TC 40 22.2948 -110.684 2 4 336
1969245N17253 1969 66 EP MM FLORENCE 1969-09-06 06:00:00 TS 22.5023 -110.794 40 hurdat_epa main 93 88 O________OP___ hurdat_epa EP061969 22.5000 -110.800 TS 40 0 22.5000 -110.800 TC 40 22.5117 -110.769 2 5 337
1969245N17253 1969 66 EP MM FLORENCE 1969-09-06 09:00:00 TS 22.7374 -110.903 main 94 92 P________PP___ EP061969 22.7348 -110.905 TS 37 0 22.7348 -110.905 TC 37 22.7477 -110.894 2 6 330
1969245N17253 1969 66 EP MM FLORENCE 1969-09-06 12:00:00 TS 23.0000 -111.100 35 hurdat_epa main 93 90 O________OO___ hurdat_epa EP061969 23.0000 -111.100 TS 35 0 23.0000 -111.100 TC 35 23.0000 -111.100 2 8 318
1969245N17253 1969 66 EP MM FLORENCE 1969-09-06 15:00:00 TS 23.2931 -111.447 main 90 88 P________PP___ EP061969 23.3001 -111.455 TS 35 0 23.3001 -111.455 TC 35 23.2652 -111.416 2 9 309
1969245N17253 1969 66 EP MM FLORENCE 1969-09-06 18:00:00 TS 23.5904 -111.888 35 hurdat_epa main 94 84 O________OP___ hurdat_epa EP061969 23.6000 -111.900 TS 35 0 23.6000 -111.900 TC 35 23.5395 -111.825 2 10 305
1969245N17253 1969 66 EP MM FLORENCE 1969-09-06 21:00:00 TS 23.8666 -112.357 main 90 88 P________PP___ EP061969 23.8726 -112.365 TS 32 -1 23.8726 -112.365 TC 32 23.8190 -112.296 2 10 301
1969245N17253 1969 66 EP MM FLORENCE 1969-09-07 00:00:00 TS 24.1000 -112.800 30 hurdat_epa main 97 97 O________OO___ hurdat_epa EP061969 24.1000 -112.800 TD 30 -1 24.1000 -112.800 TC 30 24.1000 -112.800 1 8 300
1969245N17253 1969 66 EP MM FLORENCE 1969-09-07 03:00:00 TS 24.2798 -113.130 main 106 106 P________P____ EP061969 24.2798 -113.130 TD 30 -1 24.2798 -113.130 TC 30 1 6 299
1969245N17253 1969 66 EP MM FLORENCE 1969-09-07 06:00:00 MX 24.4000 -113.400 30 hurdat_epa main 129 129 O________O____ hurdat_epa EP061969 24.4000 -113.400 TD 30 -1 24.4000 -113.400 30 1 5 291
1969245N17253 1969 66 EP MM FLORENCE 1969-09-07 09:00:00 MX 24.4651 -113.652 main 155 155 P________P____ EP061969 24.4651 -113.652 TD 30 -1 24.4651 -113.652 30 1 5 282
1969245N17253 1969 66 EP MM FLORENCE 1969-09-07 12:00:00 MX 24.5000 -113.900 30 hurdat_epa main 174 O________O____ hurdat_epa EP061969 24.5000 -113.900 TD 30 -1 24.5000 -113.900 30 5 279

About IBTrACS Database

This database is a web-friendly format of International Best Track Archive for Climate Stewardship (IBTrACS), a global best track data archive curated by NOAA dating back to 1842.

Updated: 2021-11-26